Eglin Air Force Base Valparaiso US
ICAO: KVPS
IATA: VPS
Category: Large
Scheduled Services: Yes

Elevation: 87 ft
TransAlt. 18000 ft.

Airport Communications:
APP/DEP:125.1
ATIS:134.625
CLNC DEL:127.7
GND:121.8
PMSV METRO:34.25
COMD POST:31.805
PTD:139.3
TWR:118.2

KVPS Zoom In..

If you have problems with the map follow the link
https://www.worldairports.se/pages/airport.php?
ICAO=KVPS

Runways:

(A) RW 01 length 10001 ft width 299 ft
---- / hdg 12

(B) RW 12 length 11987 ft width 300 ft
---- / hdg 120

(C) RW 19 length 10001 ft width 299 ft
ILS 109.10 / hdg 192

(D) RW 30 length 11987 ft width 300 ft
ILS 110.30 / hdg 300

Location; KVPS
Day. 12 / Time. 08.56 Zulu
* Altimeter: 30.32
* Temperature: 09° c. 48.2°f.
* Wind from: 070° Speed 11 kn.
Dewpoint: 02° c.
Visibility: 10 Statute Miles.
Clouds: Scattered 4800 ft.
Clouds: Broken 11000 ft.

KVPS 120856Z AUTO 07011KT 10SM SCT048 BKN110 09/02 A3032 RMK AO2 SLP275 T00930019 57013 $


Wind From 070°
Speed 11 kn.

 
 
jpsmedia worldairports.se 2019   terms of use